VOHY/HYD METAR and TAF weather

Enter ICAO airport designator
Station Type Date Time Source
VOHY METAR 2019/12/14 16:00 UTC NOAA

VOHY 141600Z 09003KT 5000 HZ FEW015 SCT100 24/20 Q1019 NOSIG


Station Type Date Time Source
VOHY Decoded METAR 2019/12/14 16:00 UTC NOAA

Hyderabad Airport, India (VOHY) 17-27N 078-28E 545M
Dec 14, 2019 - 11:00 AM EST / 2019.12.14 1600 UTC
Wind: from the E (090 degrees) at 3 MPH (3 KT):0
Visibility: 3 mile(s):0
Sky conditions: partly cloudy
Weather: haze
Temperature: 75 F (24 C)
Dew Point: 68 F (20 C)
Relative Humidity: 78%
Pressure (altimeter): 30.09 in. Hg (1019 hPa)
ob: VOHY 141600Z 09003KT 5000 HZ FEW015 SCT100 24/20 Q1019 NOSIG
cycle: 16

Station Type Date Time Source
VOHY TAF 2019/12/11 06:00 UTC NOAA

TAF VOHY 110500Z 1106/1115 12006KT 5000 HZ FEW015
TEMPO 1106/1109 09006KT 4000 BR SCT015
TEMPO 1110/1115 12006KT 4000 BR SCT025

Example: see airport list